createdAt,value
2019-03-31T00:02:01.208Z,8.70
2019-03-31T00:04:29.497Z,8.59
2019-03-31T00:06:57.815Z,8.53
2019-03-31T00:09:26.747Z,8.48
2019-03-31T00:11:55.126Z,8.47
2019-03-31T00:14:23.470Z,8.46
2019-03-31T00:16:52.562Z,8.44
2019-03-31T00:19:21.077Z,8.43
2019-03-31T00:21:49.498Z,8.40
2019-03-31T00:24:17.830Z,8.38
2019-03-31T00:26:46.119Z,8.36
2019-03-31T00:29:14.536Z,8.31
2019-03-31T00:31:42.853Z,8.30
2019-03-31T00:34:11.162Z,8.28
2019-03-31T00:36:39.533Z,8.26
2019-03-31T00:39:07.851Z,8.25
2019-03-31T00:41:36.133Z,8.23
2019-03-31T00:44:04.590Z,8.22
2019-03-31T00:46:33.006Z,8.21
2019-03-31T00:49:01.860Z,8.19
2019-03-31T00:51:30.150Z,8.17
2019-03-31T00:53:58.455Z,8.14
2019-03-31T00:56:26.881Z,8.12
2019-03-31T00:58:55.214Z,8.08
2019-03-31T01:01:36.214Z,8.02
2019-03-31T01:03:59.082Z,7.97
2019-03-31T01:06:27.570Z,7.96
2019-03-31T01:08:56.060Z,7.92
2019-03-31T01:11:24.926Z,7.89
2019-03-31T01:13:53.350Z,7.88
2019-03-31T01:16:21.707Z,7.85
2019-03-31T01:18:50.170Z,7.84
2019-03-31T01:21:18.513Z,7.83
2019-03-31T01:23:46.797Z,7.81
2019-03-31T01:26:17.292Z,7.78
2019-03-31T01:28:45.688Z,7.78
2019-03-31T01:31:14.013Z,7.74
2019-03-31T01:33:42.414Z,7.75
2019-03-31T01:36:10.876Z,7.77
2019-03-31T01:38:39.257Z,7.77
2019-03-31T01:41:07.839Z,7.76
2019-03-31T01:43:36.153Z,7.78
2019-03-31T01:46:06.108Z,7.83
2019-03-31T01:48:34.393Z,7.84
2019-03-31T01:51:02.747Z,7.86
2019-03-31T01:53:31.071Z,7.82
2019-03-31T01:55:59.652Z,7.81
2019-03-31T01:58:28.743Z,7.84
2019-03-31T02:00:58.664Z,7.86
2019-03-31T02:03:27.083Z,7.89
2019-03-31T02:05:58.183Z,7.89
2019-03-31T02:08:27.133Z,7.93
2019-03-31T02:10:55.469Z,7.93
2019-03-31T02:13:23.751Z,7.94
2019-03-31T02:15:52.045Z,7.94
2019-03-31T02:18:20.388Z,8.00
2019-03-31T02:20:48.672Z,8.01
2019-03-31T02:23:17.028Z,8.05
2019-03-31T02:25:46.031Z,8.09
2019-03-31T02:28:14.424Z,8.11
2019-03-31T02:30:42.705Z,8.12
2019-03-31T02:33:11.132Z,8.14
2019-03-31T02:35:39.435Z,8.18
2019-03-31T02:38:07.834Z,8.16
2019-03-31T02:40:36.351Z,8.15
2019-03-31T02:43:05.978Z,8.21
2019-03-31T02:45:34.276Z,8.21
2019-03-31T02:48:02.893Z,8.21
2019-03-31T02:50:46.173Z,8.22
2019-03-31T02:53:15.448Z,8.25
2019-03-31T02:55:44.544Z,8.30
2019-03-31T02:58:14.297Z,8.28
2019-03-31T03:00:42.590Z,8.26
2019-03-31T03:03:11.197Z,8.29
2019-03-31T03:05:40.460Z,8.31
2019-03-31T03:08:10.012Z,8.32
2019-03-31T03:10:38.596Z,8.36
2019-03-31T03:13:07.174Z,8.38
2019-03-31T03:15:44.352Z,8.40
2019-03-31T03:18:12.710Z,8.41
2019-03-31T03:20:41.751Z,8.42
2019-03-31T03:23:10.030Z,8.45
2019-03-31T03:25:54.480Z,8.46
2019-03-31T03:28:08.496Z,8.49
2019-03-31T03:30:36.933Z,8.46
2019-03-31T03:33:16.546Z,8.43
2019-03-31T03:35:36.708Z,8.41
2019-03-31T03:38:04.988Z,8.41
2019-03-31T03:40:33.400Z,8.42
2019-03-31T03:43:01.708Z,8.42
2019-03-31T03:45:30.424Z,8.41
2019-03-31T03:47:58.712Z,8.41
2019-03-31T03:50:27.091Z,8.41
2019-03-31T03:52:55.466Z,8.43
2019-03-31T03:55:24.150Z,8.41
2019-03-31T03:57:52.531Z,8.38
2019-03-31T04:00:20.820Z,8.37
2019-03-31T04:02:49.333Z,8.34
2019-03-31T04:05:17.601Z,8.30
2019-03-31T04:07:45.899Z,8.28
2019-03-31T04:10:44.802Z,8.25
2019-03-31T04:13:13.111Z,8.23
2019-03-31T04:15:41.806Z,8.21
2019-03-31T04:18:10.300Z,8.16
2019-03-31T04:20:39.554Z,8.13
2019-03-31T04:23:08.077Z,8.12
2019-03-31T04:25:36.355Z,8.08
2019-03-31T04:28:04.664Z,8.07
2019-03-31T04:30:33.621Z,8.07
2019-03-31T04:33:02.053Z,8.06
2019-03-31T04:35:30.363Z,8.06
2019-03-31T04:37:58.634Z,8.07
2019-03-31T04:40:26.966Z,8.04
2019-03-31T04:42:55.296Z,8.00
2019-03-31T04:45:24.275Z,8.03
2019-03-31T04:47:52.564Z,8.00
2019-03-31T04:50:21.189Z,8.01
2019-03-31T04:52:49.533Z,8.05
2019-03-31T04:55:17.823Z,8.03
2019-03-31T04:57:46.404Z,8.06
2019-03-31T05:00:14.747Z,8.06
2019-03-31T05:02:43.054Z,8.06
2019-03-31T05:05:11.379Z,8.07
2019-03-31T05:07:39.708Z,8.06
2019-03-31T05:10:07.999Z,8.04
2019-03-31T05:12:36.402Z,8.05
2019-03-31T05:15:05.082Z,8.02
2019-03-31T05:17:35.780Z,7.99
2019-03-31T05:20:04.448Z,8.02
2019-03-31T05:22:32.748Z,8.05
2019-03-31T05:25:01.256Z,8.04
2019-03-31T05:27:29.538Z,8.08
2019-03-31T05:29:57.892Z,8.10
2019-03-31T05:32:26.311Z,8.05
2019-03-31T05:34:54.670Z,8.07
2019-03-31T05:37:23.072Z,8.06
2019-03-31T05:39:51.611Z,8.08
2019-03-31T05:42:20.196Z,8.04
2019-03-31T05:44:48.613Z,8.06
2019-03-31T05:47:16.896Z,8.07
2019-03-31T05:49:45.263Z,8.05
2019-03-31T05:52:13.615Z,7.99
2019-03-31T05:54:42.294Z,7.98
2019-03-31T05:57:10.678Z,7.97
2019-03-31T05:59:38.962Z,7.98
2019-03-31T06:02:07.269Z,7.97
2019-03-31T06:04:36.246Z,7.96
2019-03-31T06:07:04.556Z,7.94
2019-03-31T06:09:32.887Z,7.96
2019-03-31T06:12:01.191Z,7.98
2019-03-31T06:14:29.469Z,8.01
2019-03-31T06:16:57.813Z,7.99
2019-03-31T06:19:26.109Z,7.94
2019-03-31T06:21:54.395Z,7.94
2019-03-31T06:24:22.738Z,7.91
2019-03-31T06:26:51.016Z,7.98
2019-03-31T06:29:19.299Z,7.97
2019-03-31T06:31:47.793Z,8.00
2019-03-31T06:34:16.081Z,8.06
2019-03-31T06:36:44.538Z,8.11
2019-03-31T06:39:12.850Z,8.19
2019-03-31T06:41:41.165Z,8.14
2019-03-31T06:44:09.446Z,8.15
2019-03-31T06:46:37.868Z,8.18
2019-03-31T06:49:06.438Z,8.23
2019-03-31T06:51:34.811Z,8.25
2019-03-31T06:54:03.130Z,8.24
2019-03-31T06:56:31.402Z,8.26
2019-03-31T06:58:59.781Z,8.25
2019-03-31T07:01:28.114Z,8.28
2019-03-31T07:03:56.973Z,8.32
2019-03-31T07:06:26.898Z,8.36
2019-03-31T07:08:55.249Z,8.45
2019-03-31T07:11:23.717Z,8.55
2019-03-31T07:13:52.059Z,8.59
2019-03-31T07:16:20.445Z,8.70
2019-03-31T07:18:48.725Z,8.78
2019-03-31T07:21:17.051Z,8.83
2019-03-31T07:23:45.400Z,8.93
2019-03-31T07:26:14.350Z,8.95
2019-03-31T07:28:42.692Z,8.95
2019-03-31T07:31:11.004Z,8.98
2019-03-31T07:33:39.549Z,8.98
2019-03-31T07:36:07.891Z,8.97
2019-03-31T07:38:39.212Z,8.99
2019-03-31T07:41:13.127Z,8.98
2019-03-31T07:43:38.052Z,8.98
2019-03-31T07:46:06.370Z,9.01
2019-03-31T07:48:34.662Z,9.05
2019-03-31T07:51:03.122Z,9.09
2019-03-31T07:53:31.408Z,9.12
2019-03-31T07:55:59.685Z,9.12
2019-03-31T07:58:28.723Z,9.15
2019-03-31T08:00:56.972Z,9.19
2019-03-31T08:03:25.251Z,9.25
2019-03-31T08:05:53.595Z,9.24
2019-03-31T08:08:22.086Z,9.32
2019-03-31T08:10:51.142Z,9.31
2019-03-31T08:13:19.417Z,9.31
2019-03-31T08:15:47.828Z,9.30
2019-03-31T08:18:16.106Z,9.37
2019-03-31T08:20:45.280Z,9.44
2019-03-31T08:23:13.617Z,9.53
2019-03-31T08:25:41.937Z,9.64
2019-03-31T08:28:10.414Z,9.73
2019-03-31T08:30:38.730Z,9.89
2019-03-31T08:33:07.003Z,10.02
2019-03-31T08:35:46.566Z,10.16
2019-03-31T08:38:05.387Z,10.21
2019-03-31T08:40:33.668Z,10.41
2019-03-31T08:43:02.159Z,10.61
2019-03-31T08:45:30.672Z,10.70
2019-03-31T08:47:58.979Z,10.84
2019-03-31T08:50:27.285Z,10.90
2019-03-31T08:52:55.950Z,10.91
2019-03-31T08:55:24.293Z,10.84
2019-03-31T08:57:52.604Z,10.92
2019-03-31T09:00:25.284Z,10.90
2019-03-31T09:02:53.604Z,10.98
2019-03-31T09:05:21.943Z,10.91
2019-03-31T09:07:50.353Z,10.91
2019-03-31T09:10:18.634Z,10.73
2019-03-31T09:12:48.734Z,10.72
2019-03-31T09:15:16.981Z,10.77
2019-03-31T09:17:45.346Z,10.87
2019-03-31T09:20:16.044Z,10.92
2019-03-31T09:22:44.444Z,10.98
2019-03-31T09:25:12.758Z,11.09
2019-03-31T09:27:41.034Z,11.21
2019-03-31T09:30:10.901Z,11.19
2019-03-31T09:32:39.232Z,11.36
2019-03-31T09:35:08.552Z,11.63
2019-03-31T09:37:36.858Z,11.72
2019-03-31T09:40:07.863Z,11.80
2019-03-31T09:42:36.229Z,11.97
2019-03-31T09:45:04.968Z,11.93
2019-03-31T09:47:33.284Z,11.76
2019-03-31T09:50:01.626Z,11.77
2019-03-31T09:52:30.052Z,11.67
2019-03-31T09:54:58.437Z,11.60
2019-03-31T09:57:26.741Z,11.59
2019-03-31T09:59:55.027Z,11.52
2019-03-31T10:02:23.344Z,11.56
2019-03-31T10:04:51.634Z,11.77
2019-03-31T10:07:23.766Z,11.91
2019-03-31T10:09:50.760Z,11.91
2019-03-31T10:12:19.343Z,11.85
2019-03-31T10:14:47.652Z,11.95
2019-03-31T10:17:16.014Z,12.16
2019-03-31T10:19:44.306Z,12.42
2019-03-31T10:22:12.643Z,12.54
2019-03-31T10:24:41.032Z,12.83
2019-03-31T10:27:09.616Z,13.05
2019-03-31T10:29:38.035Z,13.20
2019-03-31T10:32:06.325Z,13.23
2019-03-31T10:34:34.604Z,13.27
2019-03-31T10:37:03.082Z,13.41
2019-03-31T10:39:32.164Z,13.26
2019-03-31T10:42:00.609Z,13.37
2019-03-31T10:44:29.026Z,13.35
2019-03-31T10:46:58.942Z,13.25
2019-03-31T10:49:27.278Z,13.22
2019-03-31T10:51:56.583Z,13.11
2019-03-31T10:54:24.979Z,13.07
2019-03-31T10:56:53.406Z,13.06
2019-03-31T10:59:21.723Z,12.93
2019-03-31T11:01:50.052Z,13.03
2019-03-31T11:04:18.413Z,13.27
2019-03-31T11:06:58.226Z,13.38
2019-03-31T11:09:16.913Z,13.30
2019-03-31T11:11:45.320Z,13.13
2019-03-31T11:14:13.601Z,13.03
2019-03-31T11:16:42.221Z,13.16
2019-03-31T11:19:10.632Z,13.57
2019-03-31T11:21:40.695Z,13.77
2019-03-31T11:24:09.409Z,13.38
2019-03-31T11:26:37.796Z,13.29
2019-03-31T11:29:06.276Z,13.43
2019-03-31T11:31:34.685Z,13.43
2019-03-31T11:34:02.965Z,13.53
2019-03-31T11:36:31.304Z,13.88
2019-03-31T11:38:59.614Z,14.25
2019-03-31T11:41:27.893Z,14.35
2019-03-31T11:43:57.013Z,14.63
2019-03-31T11:46:25.288Z,14.72
2019-03-31T11:48:53.608Z,15.03
2019-03-31T11:51:22.035Z,15.24
2019-03-31T11:53:50.364Z,15.33
2019-03-31T11:56:18.754Z,15.52
2019-03-31T11:58:47.169Z,15.62
2019-03-31T12:01:15.679Z,15.73
2019-03-31T12:03:43.980Z,15.93
2019-03-31T12:06:12.262Z,16.10
2019-03-31T12:08:40.672Z,16.15
2019-03-31T12:11:09.519Z,16.32
2019-03-31T12:13:37.819Z,16.56
2019-03-31T12:16:06.209Z,16.60
2019-03-31T12:18:34.490Z,16.84
2019-03-31T12:21:02.819Z,17.03
2019-03-31T12:23:31.104Z,17.17
2019-03-31T12:25:59.710Z,17.26
2019-03-31T12:28:28.095Z,17.40
2019-03-31T12:30:56.372Z,17.14
2019-03-31T12:33:24.675Z,16.91
2019-03-31T12:35:52.955Z,16.46
2019-03-31T12:38:21.925Z,16.21
2019-03-31T12:40:50.212Z,15.99
2019-03-31T12:43:18.516Z,16.08
2019-03-31T12:45:46.822Z,16.19
2019-03-31T12:48:15.132Z,16.52
2019-03-31T12:50:44.117Z,16.26
2019-03-31T12:53:12.469Z,16.42
2019-03-31T12:55:40.874Z,16.51
2019-03-31T12:58:09.259Z,16.69
2019-03-31T13:00:37.573Z,16.42
2019-03-31T13:03:05.859Z,16.03
2019-03-31T13:05:34.740Z,15.79
2019-03-31T13:08:03.114Z,15.60
2019-03-31T13:10:31.467Z,15.51
2019-03-31T13:12:59.739Z,15.61
2019-03-31T13:15:28.729Z,15.83
2019-03-31T13:17:57.149Z,15.88
2019-03-31T13:20:25.439Z,15.83
2019-03-31T13:22:53.733Z,15.89
2019-03-31T13:25:22.080Z,15.94
2019-03-31T13:27:50.455Z,15.53
2019-03-31T13:30:21.757Z,15.49
2019-03-31T13:32:49.986Z,15.45
2019-03-31T13:35:18.269Z,15.48
2019-03-31T13:37:46.598Z,15.65
2019-03-31T13:40:15.766Z,15.60
2019-03-31T13:42:44.320Z,15.72
2019-03-31T13:45:12.672Z,15.35
2019-03-31T13:47:41.034Z,15.16
2019-03-31T13:50:09.353Z,15.33
2019-03-31T13:52:37.697Z,15.22
2019-03-31T13:55:07.264Z,15.08
2019-03-31T13:57:36.252Z,15.02
2019-03-31T14:00:07.211Z,15.06
2019-03-31T14:02:35.500Z,15.29
2019-03-31T14:05:04.944Z,15.36
2019-03-31T14:07:33.601Z,15.53
2019-03-31T14:10:01.882Z,15.47
2019-03-31T14:12:30.293Z,15.43
2019-03-31T14:14:58.645Z,15.60
2019-03-31T14:17:26.924Z,15.81
2019-03-31T14:19:55.233Z,15.57
2019-03-31T14:22:24.083Z,15.25
2019-03-31T14:24:52.385Z,14.83
2019-03-31T14:27:20.659Z,14.58
2019-03-31T14:29:49.878Z,14.40
2019-03-31T14:32:18.276Z,14.25
2019-03-31T14:34:46.567Z,14.38
2019-03-31T14:37:14.864Z,14.48
2019-03-31T14:39:43.276Z,14.62
2019-03-31T14:42:11.549Z,14.87
2019-03-31T14:44:39.826Z,14.99
2019-03-31T14:47:08.130Z,14.81
2019-03-31T14:49:37.206Z,14.64
2019-03-31T14:52:05.602Z,14.73
2019-03-31T14:54:33.888Z,14.84
2019-03-31T14:57:02.216Z,14.95
2019-03-31T14:59:30.524Z,14.80
2019-03-31T15:01:58.872Z,14.69
2019-03-31T15:04:27.385Z,14.16
2019-03-31T15:06:55.676Z,14.06
2019-03-31T15:09:23.958Z,14.25
2019-03-31T15:11:52.302Z,14.28
2019-03-31T15:14:21.276Z,14.29
2019-03-31T15:16:49.559Z,14.37
2019-03-31T15:19:17.905Z,14.38
2019-03-31T15:21:46.204Z,14.51
2019-03-31T15:24:14.489Z,14.69
2019-03-31T15:26:42.824Z,14.85
2019-03-31T15:29:11.103Z,14.58
2019-03-31T15:31:39.395Z,14.75
2019-03-31T15:34:07.843Z,14.60
2019-03-31T15:36:36.145Z,14.72
2019-03-31T15:39:09.554Z,14.83
2019-03-31T15:41:37.854Z,14.70
2019-03-31T15:44:06.227Z,14.64
2019-03-31T15:46:34.531Z,14.40
2019-03-31T15:49:02.841Z,14.08
2019-03-31T15:51:31.198Z,13.74
2019-03-31T15:53:59.492Z,13.27
2019-03-31T15:56:27.795Z,13.17
2019-03-31T15:58:56.098Z,12.61
2019-03-31T16:01:24.576Z,12.74
2019-03-31T16:03:52.880Z,12.59
2019-03-31T16:06:21.243Z,12.36
2019-03-31T16:08:49.654Z,12.29
2019-03-31T16:11:17.934Z,12.21
2019-03-31T16:13:46.283Z,12.04
2019-03-31T16:16:15.370Z,12.04
2019-03-31T16:18:43.648Z,11.99
2019-03-31T16:21:12.061Z,12.01
2019-03-31T16:23:40.347Z,11.95
2019-03-31T16:26:08.761Z,11.95
2019-03-31T16:28:37.269Z,11.91
2019-03-31T16:31:05.555Z,11.81
2019-03-31T16:33:33.881Z,11.74
2019-03-31T16:36:02.168Z,11.43
2019-03-31T16:38:30.455Z,11.34
2019-03-31T16:40:58.771Z,11.18
2019-03-31T16:43:27.058Z,11.09
2019-03-31T16:45:55.446Z,10.96
2019-03-31T16:48:23.738Z,11.02
2019-03-31T16:50:52.034Z,10.80
2019-03-31T16:53:20.368Z,10.68
2019-03-31T16:55:49.221Z,10.58
2019-03-31T16:58:17.611Z,10.56
2019-03-31T17:00:45.928Z,10.54
2019-03-31T17:03:14.218Z,10.36
2019-03-31T17:05:42.529Z,10.36
2019-03-31T17:08:10.807Z,10.30
2019-03-31T17:10:39.219Z,10.19
2019-03-31T17:13:07.496Z,10.12
2019-03-31T17:15:35.851Z,10.06
2019-03-31T17:18:04.163Z,10.00
2019-03-31T17:20:32.437Z,9.85
2019-03-31T17:23:00.739Z,9.81
2019-03-31T17:25:29.020Z,9.74
2019-03-31T17:27:57.327Z,9.70
2019-03-31T17:30:25.625Z,9.66
2019-03-31T17:32:53.937Z,9.58
2019-03-31T17:35:22.214Z,9.44
2019-03-31T17:37:50.726Z,9.31
2019-03-31T17:40:19.000Z,9.25
2019-03-31T17:42:47.311Z,9.20
2019-03-31T17:45:17.280Z,9.02
2019-03-31T17:47:45.690Z,9.04
2019-03-31T17:50:14.771Z,9.08
2019-03-31T17:52:43.187Z,9.02
2019-03-31T17:55:11.485Z,8.97
2019-03-31T17:57:42.367Z,8.97
2019-03-31T18:00:10.447Z,8.98
2019-03-31T18:02:39.057Z,8.86
2019-03-31T18:05:08.268Z,8.87
2019-03-31T18:07:37.462Z,8.74
2019-03-31T18:10:20.130Z,8.74
2019-03-31T18:12:37.624Z,8.71
2019-03-31T18:15:06.584Z,8.71
2019-03-31T18:17:35.107Z,8.70
2019-03-31T18:20:04.518Z,8.55
2019-03-31T18:22:32.832Z,8.48
2019-03-31T18:25:01.298Z,8.44
2019-03-31T18:27:29.610Z,8.32
2019-03-31T18:29:57.999Z,8.29
2019-03-31T18:32:26.338Z,8.20
2019-03-31T18:34:54.685Z,8.11
2019-03-31T18:37:22.964Z,8.00
2019-03-31T18:39:51.293Z,7.92
2019-03-31T18:42:19.574Z,7.86
2019-03-31T18:44:47.856Z,7.82
2019-03-31T18:47:16.262Z,7.72
2019-03-31T18:49:44.535Z,7.62
2019-03-31T18:52:12.931Z,7.58
2019-03-31T18:54:58.772Z,7.52
2019-03-31T18:57:46.683Z,7.42
2019-03-31T19:00:32.779Z,7.38
2019-03-31T19:03:02.741Z,7.17
2019-03-31T19:05:32.663Z,7.18
2019-03-31T19:08:02.584Z,7.08
2019-03-31T19:10:32.517Z,7.11
2019-03-31T19:13:11.099Z,7.05
2019-03-31T19:15:49.817Z,6.96
2019-03-31T19:18:25.488Z,6.96
2019-03-31T19:21:11.945Z,6.90
2019-03-31T19:23:53.875Z,6.87
2019-03-31T19:26:48.369Z,6.79
2019-03-31T19:29:10.424Z,6.73
2019-03-31T19:31:56.889Z,6.66
2019-03-31T19:34:35.920Z,6.66
2019-03-31T19:37:11.962Z,6.53
2019-03-31T19:39:41.889Z,6.50
2019-03-31T19:42:14.481Z,6.46
2019-03-31T19:44:57.289Z,6.45
2019-03-31T19:47:27.206Z,6.40
2019-03-31T19:50:00.349Z,6.40
2019-03-31T19:52:45.148Z,6.24
2019-03-31T19:55:21.307Z,6.27
2019-03-31T19:58:09.348Z,6.26
2019-03-31T20:00:42.204Z,6.13
2019-03-31T20:03:14.536Z,6.11
2019-03-31T20:05:44.458Z,6.11
2019-03-31T20:08:30.743Z,6.03
2019-03-31T20:11:00.673Z,6.06
2019-03-31T20:13:46.917Z,6.01
2019-03-31T20:16:23.008Z,5.93
2019-03-31T20:18:55.784Z,5.93
2019-03-31T20:21:34.474Z,5.89
2019-03-31T20:24:20.259Z,5.81
2019-03-31T20:26:50.893Z,5.81
2019-03-31T20:29:23.617Z,5.71
2019-03-31T20:31:53.583Z,5.68
2019-03-31T20:34:41.502Z,5.68
2019-03-31T20:37:17.173Z,5.61
2019-03-31T20:40:03.477Z,5.63
2019-03-31T20:42:39.625Z,5.64
2019-03-31T20:45:07.975Z,5.56
2019-03-31T20:47:36.250Z,5.52
2019-03-31T20:50:06.612Z,5.48
2019-03-31T20:52:34.886Z,5.48
2019-03-31T20:55:15.639Z,5.42
2019-03-31T20:57:33.672Z,5.43
2019-03-31T21:00:01.951Z,5.39
2019-03-31T21:02:30.280Z,5.38
2019-03-31T21:04:58.557Z,5.33
2019-03-31T21:07:26.946Z,5.35
2019-03-31T21:09:55.245Z,5.35
2019-03-31T21:12:23.522Z,5.36
2019-03-31T21:14:51.887Z,5.33
2019-03-31T21:17:20.180Z,5.30
2019-03-31T21:19:48.676Z,5.29
2019-03-31T21:22:16.976Z,5.28
2019-03-31T21:24:45.254Z,5.26
2019-03-31T21:27:13.589Z,5.24
2019-03-31T21:29:41.993Z,5.22
2019-03-31T21:32:10.359Z,5.21
2019-03-31T21:34:38.659Z,5.21
2019-03-31T21:37:07.079Z,5.15
2019-03-31T21:39:35.679Z,5.13
2019-03-31T21:42:03.950Z,5.07
2019-03-31T21:44:32.271Z,5.07
2019-03-31T21:47:00.557Z,5.00
2019-03-31T21:49:28.827Z,4.97
2019-03-31T21:51:57.162Z,4.96
2019-03-31T21:54:25.443Z,4.93
2019-03-31T21:56:53.719Z,4.93
2019-03-31T21:59:22.015Z,4.90
2019-03-31T22:01:50.352Z,4.91
2019-03-31T22:04:18.894Z,4.88
2019-03-31T22:06:47.170Z,4.87
2019-03-31T22:09:15.451Z,4.86
2019-03-31T22:11:43.800Z,4.86
2019-03-31T22:14:12.169Z,4.82
2019-03-31T22:16:40.647Z,4.81
2019-03-31T22:19:09.069Z,4.81
2019-03-31T22:21:37.484Z,4.79
2019-03-31T22:24:06.096Z,4.75
2019-03-31T22:26:34.478Z,4.72
2019-03-31T22:29:02.994Z,4.68
2019-03-31T22:31:31.334Z,4.63
2019-03-31T22:33:59.605Z,4.63
2019-03-31T22:36:27.953Z,4.59
2019-03-31T22:38:56.242Z,4.55
2019-03-31T22:41:24.524Z,4.53
2019-03-31T22:43:52.851Z,4.50
2019-03-31T22:46:21.201Z,4.49
2019-03-31T22:48:49.788Z,4.48
2019-03-31T22:51:18.081Z,4.45
2019-03-31T22:53:46.387Z,4.42
2019-03-31T22:56:14.713Z,4.36
2019-03-31T22:58:43.125Z,4.36
2019-03-31T23:01:11.395Z,4.33
2019-03-31T23:03:39.663Z,4.28
2019-03-31T23:06:07.972Z,4.29
2019-03-31T23:08:36.269Z,4.30
2019-03-31T23:11:04.588Z,4.29
2019-03-31T23:13:32.854Z,4.24
2019-03-31T23:16:01.176Z,4.19
2019-03-31T23:18:29.760Z,4.16
2019-03-31T23:20:58.000Z,4.12
2019-03-31T23:23:26.304Z,4.09
2019-03-31T23:25:54.837Z,4.06
2019-03-31T23:28:23.273Z,3.99
2019-03-31T23:30:51.621Z,4.00
2019-03-31T23:33:19.894Z,3.94
2019-03-31T23:35:48.192Z,3.92
2019-03-31T23:38:16.652Z,3.87
2019-03-31T23:40:45.028Z,3.83
2019-03-31T23:43:13.323Z,3.80
2019-03-31T23:45:41.634Z,3.78
2019-03-31T23:48:09.967Z,3.77
2019-03-31T23:50:39.012Z,3.76
2019-03-31T23:53:07.315Z,3.74
2019-03-31T23:55:35.936Z,3.73
2019-03-31T23:58:04.338Z,3.67
